Time,TemperatureF,DewpointF,PressureIn,WindDirection,WindDirectionDegrees,WindSpeedMPH,WindSpeedGustMPH,Humidity,HourlyPrecipIn,Conditions,Clouds,dailyrainin,SoftwareType,DateUTC
2013-06-19 00:06:00,52.2,44.5,30.02,NNE,22,2.2,-999.0,75,-99.99,,,0.00,Acu-Link.com,2013-06-19 04:06:00,
2013-06-19 00:21:00,51.8,44.5,30.02,NNW,337,1.7,-999.0,76,-99.99,,,0.00,Acu-Link.com,2013-06-19 04:21:00,
2013-06-19 00:36:00,51.3,44.3,30.02,NE,45,0.0,-999.0,77,-99.99,,,0.00,Acu-Link.com,2013-06-19 04:36:00,
2013-06-19 00:51:00,50.5,44.2,30.02,North,0,0.0,-999.0,79,-99.99,,,0.00,Acu-Link.com,2013-06-19 04:51:00,
2013-06-19 01:07:00,50.0,44.1,30.03,WNW,292,1.1,-999.0,80,-99.99,,,0.00,Acu-Link.com,2013-06-19 05:07:00,
2013-06-19 01:22:00,49.1,43.5,30.02,North,0,0.0,-999.0,81,-99.99,,,0.00,Acu-Link.com,2013-06-19 05:22:00,
2013-06-19 01:37:00,48.4,43.8,30.02,NNE,22,1.1,-999.0,84,-99.99,,,0.00,Acu-Link.com,2013-06-19 05:37:00,
2013-06-19 01:52:00,48.0,43.7,30.03,WNW,292,0.0,-999.0,85,-99.99,,,0.00,Acu-Link.com,2013-06-19 05:52:00,
2013-06-19 02:07:00,47.5,43.5,30.03,NE,45,0.0,-999.0,86,-99.99,,,0.00,Acu-Link.com,2013-06-19 06:07:00,
2013-06-19 02:23:00,46.8,43.1,30.04,SW,225,0.0,-999.0,87,-99.99,,,0.00,Acu-Link.com,2013-06-19 06:23:00,
2013-06-19 02:38:00,46.2,43.1,30.04,NNW,337,0.0,-999.0,89,-99.99,,,0.00,Acu-Link.com,2013-06-19 06:38:00,
2013-06-19 02:53:00,45.7,43.2,30.04,NNW,337,0.0,-999.0,91,-99.99,,,0.00,Acu-Link.com,2013-06-19 06:53:00,
2013-06-19 03:08:00,45.5,43.3,30.06,North,0,0.0,-999.0,92,-99.99,,,0.00,Acu-Link.com,2013-06-19 07:08:00,
2013-06-19 03:23:00,45.1,42.9,30.05,NNE,22,0.0,-999.0,92,-99.99,,,0.00,Acu-Link.com,2013-06-19 07:23:00,
2013-06-19 03:39:00,44.8,42.6,30.05,NNE,22,0.0,-999.0,92,-99.99,,,0.00,Acu-Link.com,2013-06-19 07:39:00,
2013-06-19 03:54:00,44.1,42.2,30.06,NNE,22,0.0,-999.0,93,-99.99,,,0.00,Acu-Link.com,2013-06-19 07:54:00,
2013-06-19 04:09:00,43.9,42.6,30.06,NW,315,0.0,-999.0,95,-99.99,,,0.00,Acu-Link.com,2013-06-19 08:09:00,
2013-06-19 04:25:00,43.9,42.6,30.06,WSW,247,0.0,-999.0,95,-99.99,,,0.00,Acu-Link.com,2013-06-19 08:25:00,
2013-06-19 04:40:00,43.7,42.6,30.06,SW,225,0.0,-999.0,96,-99.99,,,0.00,Acu-Link.com,2013-06-19 08:40:00,
2013-06-19 04:55:00,43.3,42.2,30.06,SSW,202,0.0,-999.0,96,-99.99,,,0.00,Acu-Link.com,2013-06-19 08:55:00,
2013-06-19 05:10:00,43.3,42.2,30.07,NW,315,0.0,-999.0,96,-99.99,,,0.00,Acu-Link.com,2013-06-19 09:10:00,
2013-06-19 05:25:00,43.7,43.2,30.07,West,270,0.0,-999.0,98,-99.99,,,0.00,Acu-Link.com,2013-06-19 09:25:00,
2013-06-19 05:40:00,43.9,43.4,30.08,West,270,0.0,-999.0,98,-99.99,,,0.00,Acu-Link.com,2013-06-19 09:40:00,
2013-06-19 05:55:00,44.4,43.9,30.09,North,0,0.0,-999.0,98,-99.99,,,0.00,Acu-Link.com,2013-06-19 09:55:00,
2013-06-19 06:11:00,44.4,43.9,30.09,North,0,0.0,-999.0,98,-99.99,,,0.00,Acu-Link.com,2013-06-19 10:11:00,
2013-06-19 06:26:00,44.4,43.9,30.10,NE,45,0.0,-999.0,98,-99.99,,,0.00,Acu-Link.com,2013-06-19 10:26:00,
2013-06-19 06:41:00,45.5,45.0,30.10,WNW,292,2.2,-999.0,98,-99.99,,,0.00,Acu-Link.com,2013-06-19 10:41:00,
2013-06-19 06:57:00,47.1,46.6,30.11,ENE,67,2.2,-999.0,98,-99.99,,,0.00,Acu-Link.com,2013-06-19 10:57:00,
2013-06-19 07:12:00,48.9,48.4,30.11,East,90,4.2,-999.0,98,-99.99,,,0.00,Acu-Link.com,2013-06-19 11:12:00,
2013-06-19 07:27:00,53.6,52.8,30.12,NNE,22,2.7,-999.0,97,-99.99,,,0.00,Acu-Link.com,2013-06-19 11:27:00,
2013-06-19 07:42:00,58.1,54.2,30.13,North,0,4.7,-999.0,87,-99.99,,,0.00,Acu-Link.com,2013-06-19 11:42:00,
2013-06-19 07:57:00,61.5,55.3,30.13,North,0,2.7,-999.0,80,-99.99,,,0.00,Acu-Link.com,2013-06-19 11:57:00,
2013-06-19 08:13:00,63.7,55.6,30.13,NNE,22,3.2,-999.0,75,-99.99,,,0.00,Acu-Link.com,2013-06-19 12:13:00,
2013-06-19 08:28:00,66.0,55.9,30.13,East,90,1.7,-999.0,70,-99.99,,,0.00,Acu-Link.com,2013-06-19 12:28:00,
2013-06-19 08:43:00,68.0,56.6,30.14,East,90,2.7,-999.0,67,-99.99,,,0.00,Acu-Link.com,2013-06-19 12:43:00,
2013-06-19 08:58:00,69.3,55.7,30.14,NNE,22,3.7,-999.0,62,-99.99,,,0.00,Acu-Link.com,2013-06-19 12:58:00,
2013-06-19 09:14:00,71.2,55.2,30.15,ESE,112,3.2,-999.0,57,-99.99,,,0.00,Acu-Link.com,2013-06-19 13:14:00,
2013-06-19 09:29:00,66.6,51.4,30.15,ENE,67,2.7,-999.0,58,-99.99,,,0.00,Acu-Link.com,2013-06-19 13:29:00,
2013-06-19 09:44:00,66.7,51.4,30.15,SSE,157,4.2,-999.0,58,-99.99,,,0.00,Acu-Link.com,2013-06-19 13:44:00,
2013-06-19 09:59:00,67.5,52.7,30.14,NE,45,3.7,-999.0,59,-99.99,,,0.00,Acu-Link.com,2013-06-19 13:59:00,
2013-06-19 10:14:00,68.2,51.9,30.13,NNW,337,2.2,-999.0,56,-99.99,,,0.00,Acu-Link.com,2013-06-19 14:14:00,
2013-06-19 10:30:00,70.2,54.2,30.13,ESE,112,6.8,-999.0,57,-99.99,,,0.00,Acu-Link.com,2013-06-19 14:30:00,
2013-06-19 10:45:00,70.9,54.4,30.13,ENE,67,2.7,-999.0,56,-99.99,,,0.00,Acu-Link.com,2013-06-19 14:45:00,
2013-06-19 11:00:00,71.1,52.6,30.13,South,180,3.2,-999.0,52,-99.99,,,0.00,Acu-Link.com,2013-06-19 15:00:00,
2013-06-19 11:15:00,70.3,52.3,30.13,NW,315,2.7,-999.0,53,-99.99,,,0.00,Acu-Link.com,2013-06-19 15:15:00,
2013-06-19 11:30:00,71.2,54.2,30.13,ESE,112,5.3,-999.0,55,-99.99,,,0.00,Acu-Link.com,2013-06-19 15:30:00,
2013-06-19 11:46:00,73.8,56.6,30.13,West,270,1.1,-999.0,55,-99.99,,,0.00,Acu-Link.com,2013-06-19 15:46:00,
2013-06-19 12:01:00,72.5,53.3,30.14,NNE,22,7.3,-999.0,51,-99.99,,,0.00,Acu-Link.com,2013-06-19 16:01:00,
2013-06-19 12:16:00,75.7,55.7,30.13,WNW,292,0.0,-999.0,50,-99.99,,,0.00,Acu-Link.com,2013-06-19 16:16:00,
2013-06-19 12:31:00,73.4,51.9,30.13,ESE,112,1.7,-999.0,47,-99.99,,,0.00,Acu-Link.com,2013-06-19 16:31:00,
2013-06-19 12:46:00,74.7,53.1,30.13,East,90,3.7,-999.0,47,-99.99,,,0.00,Acu-Link.com,2013-06-19 16:46:00,
2013-06-19 13:02:00,72.3,50.3,30.13,SSW,202,4.7,-999.0,46,-99.99,,,0.00,Acu-Link.com,2013-06-19 17:02:00,
2013-06-19 13:17:00,74.1,54.3,30.13,NW,315,1.7,-999.0,50,-99.99,,,0.00,Acu-Link.com,2013-06-19 17:17:00,
2013-06-19 13:32:00,74.1,52.0,30.12,SE,135,2.7,-999.0,46,-99.99,,,0.00,Acu-Link.com,2013-06-19 17:32:00,
2013-06-19 13:47:00,73.8,51.7,30.12,ESE,112,3.7,-999.0,46,-99.99,,,0.00,Acu-Link.com,2013-06-19 17:47:00,
2013-06-19 14:02:00,75.6,52.7,30.11,West,270,5.8,-999.0,45,-99.99,,,0.00,Acu-Link.com,2013-06-19 18:02:00,
2013-06-19 14:18:00,76.3,53.4,30.11,NNE,22,4.2,-999.0,45,-99.99,,,0.00,Acu-Link.com,2013-06-19 18:18:00,
2013-06-19 14:33:00,75.7,54.0,30.10,NW,315,3.7,-999.0,47,-99.99,,,0.00,Acu-Link.com,2013-06-19 18:33:00,
2013-06-19 14:48:00,75.7,54.0,30.10,ENE,67,2.7,-999.0,47,-99.99,,,0.00,Acu-Link.com,2013-06-19 18:48:00,
2013-06-19 15:03:00,74.7,51.9,30.09,SW,225,2.7,-999.0,45,-99.99,,,0.00,Acu-Link.com,2013-06-19 19:03:00,
2013-06-19 15:19:00,75.7,54.6,30.09,North,0,3.7,-999.0,48,-99.99,,,0.00,Acu-Link.com,2013-06-19 19:19:00,
2013-06-19 15:34:00,77.4,55.0,30.09,East,90,2.7,-999.0,46,-99.99,,,0.00,Acu-Link.com,2013-06-19 19:34:00,
2013-06-19 15:49:00,75.0,52.8,30.10,East,90,5.3,-999.0,46,-99.99,,,0.00,Acu-Link.com,2013-06-19 19:49:00,
2013-06-19 16:04:00,75.6,53.3,30.09,SE,135,3.2,-999.0,46,-99.99,,,0.00,Acu-Link.com,2013-06-19 20:04:00,
2013-06-19 16:20:00,75.0,51.6,30.09,East,90,3.2,-999.0,44,-99.99,,,0.00,Acu-Link.com,2013-06-19 20:20:00,
2013-06-19 16:35:00,74.8,52.6,30.08,SE,135,4.2,-999.0,46,-99.99,,,0.00,Acu-Link.com,2013-06-19 20:35:00,
2013-06-19 16:50:00,75.4,54.3,30.08,SSE,157,3.7,-999.0,48,-99.99,,,0.00,Acu-Link.com,2013-06-19 20:50:00,
2013-06-19 17:05:00,75.2,52.4,30.08,ESE,112,7.3,-999.0,45,-99.99,,,0.00,Acu-Link.com,2013-06-19 21:05:00,
2013-06-19 17:21:00,74.5,51.1,30.07,ESE,112,3.2,-999.0,44,-99.99,,,0.00,Acu-Link.com,2013-06-19 21:21:00,
2013-06-19 17:36:00,75.4,53.2,30.07,West,270,2.2,-999.0,46,-99.99,,,0.00,Acu-Link.com,2013-06-19 21:36:00,
2013-06-19 17:51:00,75.9,52.4,30.07,ESE,112,4.7,-999.0,44,-99.99,,,0.00,Acu-Link.com,2013-06-19 21:51:00,
2013-06-19 18:06:00,78.3,53.9,30.07,ESE,112,3.7,-999.0,43,-99.99,,,0.00,Acu-Link.com,2013-06-19 22:06:00,
2013-06-19 18:21:00,77.5,52.6,30.06,West,270,2.7,-999.0,42,-99.99,,,0.00,Acu-Link.com,2013-06-19 22:21:00,
2013-06-19 18:37:00,78.3,53.3,30.06,NW,315,3.2,-999.0,42,-99.99,,,0.00,Acu-Link.com,2013-06-19 22:37:00,
2013-06-19 18:52:00,76.5,52.3,30.06,SE,135,3.2,-999.0,43,-99.99,,,0.00,Acu-Link.com,2013-06-19 22:52:00,
2013-06-19 19:07:00,76.3,52.1,30.06,NE,45,3.7,-999.0,43,-99.99,,,0.00,Acu-Link.com,2013-06-19 23:07:00,
2013-06-19 19:22:00,75.9,51.8,30.05,ESE,112,1.1,-999.0,43,-99.99,,,0.00,Acu-Link.com,2013-06-19 23:22:00,
2013-06-19 19:38:00,74.8,51.4,30.06,South,180,4.2,-999.0,44,-99.99,,,0.00,Acu-Link.com,2013-06-19 23:38:00,
2013-06-19 19:53:00,74.5,52.3,30.06,SSE,157,1.7,-999.0,46,-99.99,,,0.00,Acu-Link.com,2013-06-19 23:53:00,
2013-06-19 20:08:00,71.4,49.5,30.06,SSE,157,4.7,-999.0,46,-99.99,,,0.00,Acu-Link.com,2013-06-20 00:08:00,
2013-06-19 20:24:00,69.4,46.5,30.07,ESE,112,5.3,-999.0,44,-99.99,,,0.00,Acu-Link.com,2013-06-20 00:24:00,
2013-06-19 20:39:00,68.2,49.9,30.07,ESE,112,2.7,-999.0,52,-99.99,,,0.00,Acu-Link.com,2013-06-20 00:39:00,
2013-06-19 20:54:00,67.3,52.0,30.06,SE,135,3.2,-999.0,58,-99.99,,,0.00,Acu-Link.com,2013-06-20 00:54:00,
2013-06-19 21:09:00,66.2,53.7,30.06,SSE,157,0.0,-999.0,64,-99.99,,,0.00,Acu-Link.com,2013-06-20 01:09:00,
2013-06-19 21:24:00,65.5,54.7,30.07,ESE,112,2.7,-999.0,68,-99.99,,,0.00,Acu-Link.com,2013-06-20 01:24:00,
2013-06-19 21:40:00,64.9,55.3,30.08,SSE,157,3.2,-999.0,71,-99.99,,,0.00,Acu-Link.com,2013-06-20 01:40:00,
2013-06-19 21:55:00,64.4,54.8,30.08,ESE,112,0.0,-999.0,71,-99.99,,,0.00,Acu-Link.com,2013-06-20 01:55:00,
2013-06-19 22:10:00,63.9,54.3,30.09,South,180,1.7,-999.0,71,-99.99,,,0.00,Acu-Link.com,2013-06-20 02:10:00,
2013-06-19 22:25:00,63.0,54.2,30.09,West,270,0.0,-999.0,73,-99.99,,,0.00,Acu-Link.com,2013-06-20 02:25:00,
2013-06-19 22:41:00,61.9,53.5,30.10,South,180,0.0,-999.0,74,-99.99,,,0.00,Acu-Link.com,2013-06-20 02:41:00,
2013-06-19 22:56:00,60.4,52.8,30.11,East,90,0.0,-999.0,76,-99.99,,,0.00,Acu-Link.com,2013-06-20 02:56:00,
2013-06-19 23:11:00,59.2,52.7,30.11,ENE,67,0.0,-999.0,79,-99.99,,,0.00,Acu-Link.com,2013-06-20 03:11:00,
2013-06-19 23:26:00,57.9,52.1,30.11,ENE,67,0.0,-999.0,81,-99.99,,,0.00,Acu-Link.com,2013-06-20 03:26:00,
2013-06-19 23:41:00,57.0,52.2,30.11,East,90,0.0,-999.0,84,-99.99,,,0.00,Acu-Link.com,2013-06-20 03:41:00,
2013-06-19 23:57:00,56.1,51.7,30.11,East,90,0.0,-999.0,85,-99.99,,,0.00,Acu-Link.com,2013-06-20 03:57:00,